Time;durP1;ratioP1;P1;durP2;ratioP2;P2;SDS_P1;SDS_P2;PMS_P1;PMS_P2;Temp;Humidity;BMP_temperature;BMP_pressure;BME280_temperature;BME280_humidity;BME280_pressure;Samples;Min_cycle;Max_cycle;Signal;HPM_P1;HPM_P2
2023/01/21 00:00:31;;;;;;;3.33;3.03;;;-0.30;99.90;;;;;;5054303;28;20244;-81
2023/01/21 00:02:56;;;;;;;7.80;2.80;;;-0.30;99.90;;;;;;5057757;28;21086;-80
2023/01/21 00:05:22;;;;;;;3.37;3.10;;;-0.20;99.90;;;;;;5040507;28;20201;-82
2023/01/21 00:07:48;;;;;;;2.70;1.80;;;-0.10;99.90;;;;;;5038877;28;20223;-81
2023/01/21 00:10:14;;;;;;;4.23;3.07;;;-0.10;99.90;;;;;;5037981;28;20217;-81
2023/01/21 00:12:40;;;;;;;5.30;4.80;;;-0.20;99.90;;;;;;5038625;28;20675;-81
2023/01/21 00:15:06;;;;;;;4.73;4.33;;;-0.20;99.90;;;;;;5055128;28;20218;-81
2023/01/21 00:17:34;;;;;;;2.37;2.23;;;-0.10;99.90;;;;;;5055025;28;20673;-84
2023/01/21 00:20:02;;;;;;;3.93;3.63;;;-0.20;99.90;;;;;;5024633;28;20186;-84
2023/01/21 00:22:28;;;;;;;7.43;2.73;;;-0.20;99.90;;;;;;5057800;28;20271;-83
2023/01/21 00:24:54;;;;;;;2.37;2.27;;;-0.20;99.90;;;;;;5057030;28;20783;-83
2023/01/21 00:27:20;;;;;;;5.60;4.63;;;-0.20;99.90;;;;;;5038020;28;20234;-85
2023/01/21 00:29:45;;;;;;;8.37;4.87;;;-0.20;99.90;;;;;;5039652;28;20224;-80
2023/01/21 00:32:11;;;;;;;4.00;3.40;;;-0.20;99.90;;;;;;5056050;28;20634;-81
2023/01/21 00:34:37;;;;;;;2.03;1.93;;;-0.10;99.90;;;;;;5041382;28;20209;-83
2023/01/21 00:37:02;;;;;;;3.90;3.70;;;-0.10;99.90;;;;;;5055269;28;20216;-80
2023/01/21 00:39:28;;;;;;;4.80;3.97;;;-0.10;99.90;;;;;;5038034;28;20661;-80
2023/01/21 00:41:54;;;;;;;3.93;3.67;;;-0.10;99.90;;;;;;5054930;28;20746;-80
2023/01/21 00:44:20;;;;;;;7.27;4.80;;;-0.10;99.90;;;;;;5054429;28;20190;-87
2023/01/21 00:46:45;;;;;;;3.40;3.20;;;-0.10;99.90;;;;;;5055157;28;20221;-79
2023/01/21 00:49:11;;;;;;;4.50;4.10;;;-0.20;99.90;;;;;;5052571;28;20304;-82
2023/01/21 00:51:37;;;;;;;2.93;1.97;;;-0.30;99.90;;;;;;5056653;28;20730;-86
2023/01/21 00:54:02;;;;;;;3.77;3.57;;;-0.30;99.90;;;;;;5057291;28;20732;-81
2023/01/21 00:56:28;;;;;;;7.30;3.67;;;-0.30;99.90;;;;;;5038126;28;21048;-84
2023/01/21 00:58:54;;;;;;;6.97;1.93;;;-0.30;99.90;;;;;;5040222;28;20192;-79
2023/01/21 01:01:21;;;;;;;4.23;3.30;;;-0.20;99.90;;;;;;5055724;28;20895;-80
2023/01/21 01:03:48;;;;;;;2.87;2.27;;;-0.20;99.90;;;;;;5056884;28;20252;-80
2023/01/21 01:06:20;;;;;;;2.23;2.13;;;-0.20;99.90;;;;;;5054490;28;20260;-79
2023/01/21 01:08:46;;;;;;;2.13;2.00;;;-0.10;99.90;;;;;;5056246;28;20243;-81
2023/01/21 01:11:13;;;;;;;5.13;3.07;;;-0.10;99.90;;;;;;5056767;28;20296;-80
2023/01/21 01:13:39;;;;;;;2.80;2.10;;;-0.10;99.90;;;;;;5055013;28;20209;-80
2023/01/21 01:16:06;;;;;;;2.87;2.67;;;0.00;99.90;;;;;;5055634;28;20356;-83
2023/01/21 01:18:35;;;;;;;1.83;1.63;;;0.00;99.90;;;;;;5054709;28;20273;-80
2023/01/21 01:21:02;;;;;;;5.27;2.37;;;0.00;99.90;;;;;;5055600;28;20228;-82
2023/01/21 01:23:28;;;;;;;5.53;2.77;;;0.00;99.90;;;;;;5058465;28;20213;-81
2023/01/21 01:25:55;;;;;;;3.13;2.93;;;0.00;99.90;;;;;;5057206;28;20219;-81
2023/01/21 01:28:20;;;;;;;2.73;2.53;;;0.00;99.90;;;;;;5056314;28;20697;-79
2023/01/21 01:30:46;;;;;;;7.67;3.73;;;0.10;99.90;;;;;;5022110;28;20251;-87
2023/01/21 01:33:12;;;;;;;5.10;4.57;;;0.10;99.90;;;;;;5038013;28;20575;-80
2023/01/21 01:35:37;;;;;;;3.17;3.00;;;0.20;99.90;;;;;;5052638;28;20178;-81
2023/01/21 01:38:06;;;;;;;5.67;4.17;;;0.20;99.90;;;;;;5038015;28;20276;-83
2023/01/21 01:40:36;;;;;;;3.30;3.03;;;0.30;99.90;;;;;;5056047;28;20221;-83
2023/01/21 01:43:02;;;;;;;2.53;2.20;;;0.40;99.90;;;;;;5051682;28;20206;-83
2023/01/21 01:45:27;;;;;;;2.20;2.10;;;0.40;99.90;;;;;;5055362;28;20571;-81
2023/01/21 01:47:58;;;;;;;4.43;3.83;;;0.40;99.90;;;;;;5054890;28;20855;-83
2023/01/21 01:50:34;;;;;;;2.63;2.47;;;0.30;99.90;;;;;;5051024;28;20312;-81
2023/01/21 01:53:00;;;;;;;3.97;2.10;;;0.30;99.90;;;;;;5062257;28;20207;-82
2023/01/21 01:55:29;;;;;;;3.60;3.30;;;0.30;99.90;;;;;;5035181;28;20550;-80
2023/01/21 01:57:55;;;;;;;2.17;2.07;;;0.40;99.90;;;;;;5056628;28;21076;-80
2023/01/21 02:00:24;;;;;;;4.63;4.27;;;0.40;99.90;;;;;;5051735;28;20582;-81
2023/01/21 02:05:37;;;;;;;3.50;3.03;;;0.40;99.90;;;;;;5054528;28;20204;-80
2023/01/21 02:08:03;;;;;;;2.30;2.20;;;0.40;99.90;;;;;;5052594;28;20194;-80
2023/01/21 02:10:30;;;;;;;2.70;2.53;;;0.40;99.90;;;;;;5052393;28;20209;-86
2023/01/21 02:12:56;;;;;;;7.53;2.40;;;0.50;99.90;;;;;;5049697;28;20213;-80
2023/01/21 02:15:29;;;;;;;2.63;2.53;;;0.50;99.90;;;;;;5053728;28;20248;-80
2023/01/21 02:18:01;;;;;;;5.63;2.53;;;0.60;99.90;;;;;;5054355;28;20240;-80
2023/01/21 02:20:52;;;;;;;2.67;2.57;;;0.60;99.90;;;;;;5049451;28;20721;-85
2023/01/21 02:23:41;;;;;;;3.07;1.27;;;0.60;99.90;;;;;;5054115;28;20631;-80
2023/01/21 02:26:16;;;;;;;2.33;1.83;;;0.60;99.90;;;;;;5052203;28;20225;-80
2023/01/21 02:29:13;;;;;;;2.83;2.53;;;0.60;99.90;;;;;;5056062;28;20221;-81
2023/01/21 02:31:54;;;;;;;2.90;2.47;;;0.70;99.90;;;;;;5054483;28;20241;-80
2023/01/21 02:34:32;;;;;;;2.93;1.50;;;0.80;99.90;;;;;;5054061;28;20709;-82
2023/01/21 02:37:20;;;;;;;4.57;4.17;;;0.90;99.90;;;;;;5052326;28;20685;-80
2023/01/21 02:40:04;;;;;;;5.10;4.73;;;1.00;99.90;;;;;;5053311;28;20218;-82
2023/01/21 02:42:46;;;;;;;2.90;2.70;;;1.10;99.90;;;;;;5055686;28;20222;-81
2023/01/21 02:45:14;;;;;;;5.60;3.97;;;1.10;99.90;;;;;;5051461;28;20881;-79
2023/01/21 02:47:54;;;;;;;5.60;5.10;;;1.20;99.90;;;;;;5054599;28;20422;-83
2023/01/21 02:50:26;;;;;;;3.73;3.53;;;1.30;99.90;;;;;;5053908;28;20237;-83
2023/01/21 02:53:00;;;;;;;4.93;3.87;;;1.30;99.90;;;;;;5053429;28;20236;-82
2023/01/21 02:55:33;;;;;;;4.67;4.33;;;1.30;99.90;;;;;;5049347;28;20830;-80
2023/01/21 02:58:05;;;;;;;2.63;1.53;;;1.30;99.90;;;;;;5054272;28;20249;-81
2023/01/21 03:00:52;;;;;;;3.23;2.93;;;1.30;99.90;;;;;;5052741;28;20224;-84
2023/01/21 03:03:41;;;;;;;4.50;4.30;;;1.40;99.90;;;;;;5054221;28;20270;-80
2023/01/21 03:06:06;;;;;;;3.77;2.50;;;1.40;99.90;;;;;;5052949;28;20229;-82
2023/01/21 03:08:50;;;;;;;2.87;2.70;;;1.30;99.90;;;;;;5055696;28;20259;-84
2023/01/21 03:11:19;;;;;;;8.90;5.57;;;1.20;99.90;;;;;;5054648;28;20190;-88
2023/01/21 03:16:56;;;;;;;5.97;4.73;;;1.20;99.90;;;;;;5054648;28;20217;-82
2023/01/21 03:19:51;;;;;;;3.83;3.63;;;1.00;99.90;;;;;;5053664;28;20749;-82
2023/01/21 03:22:22;;;;;;;4.73;4.37;;;1.00;99.90;;;;;;5043211;28;20230;-81
2023/01/21 03:24:52;;;;;;;2.47;2.33;;;1.00;99.90;;;;;;5054541;28;20220;-80
2023/01/21 03:27:23;;;;;;;5.27;4.97;;;1.10;99.90;;;;;;5052135;28;20225;-82
2023/01/21 03:29:52;;;;;;;3.57;3.30;;;1.10;99.90;;;;;;5052679;28;20589;-80
2023/01/21 03:32:20;;;;;;;6.13;4.97;;;1.10;99.90;;;;;;5055061;28;20186;-88
2023/01/21 03:34:50;;;;;;;3.97;3.67;;;1.10;99.90;;;;;;5052729;28;20213;-80
2023/01/21 03:37:23;;;;;;;3.23;2.83;;;1.10;99.90;;;;;;5057183;28;20231;-80
2023/01/21 03:40:14;;;;;;;5.97;3.77;;;1.20;99.90;;;;;;5059289;28;20290;-82
2023/01/21 03:42:42;;;;;;;3.37;3.17;;;1.30;99.90;;;;;;5056287;28;21258;-82
2023/01/21 03:45:09;;;;;;;6.90;5.37;;;1.30;99.90;;;;;;5057567;28;20662;-79
2023/01/21 03:47:37;;;;;;;8.37;6.03;;;1.30;99.90;;;;;;5056252;28;20217;-80
2023/01/21 03:50:08;;;;;;;3.77;3.57;;;1.30;99.90;;;;;;5057809;28;20185;-82
2023/01/21 03:52:37;;;;;;;3.43;3.23;;;1.30;99.90;;;;;;5055688;28;20751;-80
2023/01/21 03:55:04;;;;;;;3.77;3.53;;;1.30;99.90;;;;;;5058163;28;20222;-81
2023/01/21 03:57:30;;;;;;;3.10;2.93;;;1.30;99.90;;;;;;5054636;28;20237;-79
2023/01/21 03:59:56;;;;;;;3.07;2.87;;;1.30;99.90;;;;;;5059842;28;20227;-81
2023/01/21 04:02:21;;;;;;;2.70;2.57;;;1.30;99.90;;;;;;5038363;28;20181;-81
2023/01/21 04:04:47;;;;;;;3.03;2.80;;;1.20;99.90;;;;;;5057077;28;20218;-81
2023/01/21 04:07:16;;;;;;;5.40;4.90;;;1.10;99.90;;;;;;5057489;28;20237;-83
2023/01/21 04:09:42;;;;;;;5.50;5.10;;;1.00;99.90;;;;;;5056362;28;20237;-82
2023/01/21 04:12:08;;;;;;;7.13;5.20;;;0.90;99.90;;;;;;5058339;28;20583;-82
2023/01/21 04:14:34;;;;;;;4.83;3.17;;;0.80;99.90;;;;;;5038354;28;20639;-83
2023/01/21 04:16:59;;;;;;;7.10;4.30;;;0.80;99.90;;;;;;5056572;28;20195;-79
2023/01/21 04:19:25;;;;;;;5.20;4.73;;;0.70;99.90;;;;;;5057012;28;20217;-83
2023/01/21 04:21:51;;;;;;;4.93;4.43;;;0.70;99.90;;;;;;5050859;28;20234;-87
2023/01/21 04:24:16;;;;;;;4.23;3.93;;;0.70;99.90;;;;;;5016739;28;20291;-87
2023/01/21 04:26:42;;;;;;;10.27;4.20;;;0.60;99.90;;;;;;5016512;28;20238;-86
2023/01/21 04:29:08;;;;;;;2.87;2.67;;;0.60;99.90;;;;;;5033820;28;20209;-87
2023/01/21 04:31:33;;;;;;;7.13;3.93;;;0.50;99.90;;;;;;5050316;28;20222;-87
2023/01/21 04:33:59;;;;;;;2.50;1.63;;;0.60;99.90;;;;;;5033066;28;20640;-86
2023/01/21 04:36:25;;;;;;;3.73;3.43;;;0.60;99.90;;;;;;5049513;28;20237;-85
2023/01/21 04:38:50;;;;;;;3.30;2.90;;;0.50;99.90;;;;;;5050886;28;20213;-84
2023/01/21 04:41:16;;;;;;;6.20;5.47;;;0.50;99.90;;;;;;5051199;28;20174;-87
2023/01/21 04:43:42;;;;;;;3.60;2.70;;;0.50;99.90;;;;;;5033124;28;20283;-86
2023/01/21 04:46:08;;;;;;;8.20;5.47;;;0.60;99.90;;;;;;5049621;28;20308;-87
2023/01/21 04:48:33;;;;;;;5.30;3.53;;;0.50;99.90;;;;;;5048098;28;20301;-87
2023/01/21 04:50:59;;;;;;;3.70;3.43;;;0.50;99.90;;;;;;5033018;28;20379;-86
2023/01/21 04:53:25;;;;;;;4.53;2.77;;;0.40;99.90;;;;;;5049437;28;20673;-85
2023/01/21 04:55:51;;;;;;;7.10;2.37;;;0.40;99.90;;;;;;5049582;28;20190;-85
2023/01/21 04:58:18;;;;;;;3.20;2.97;;;0.40;99.90;;;;;;5050133;28;20225;-86
2023/01/21 05:00:44;;;;;;;4.77;4.37;;;0.30;99.90;;;;;;5049186;28;20209;-86
2023/01/21 05:03:09;;;;;;;9.30;2.20;;;0.40;99.90;;;;;;5032639;28;20228;-86
2023/01/21 05:05:35;;;;;;;2.17;2.10;;;0.30;99.90;;;;;;5048973;28;20181;-88
2023/01/21 05:08:01;;;;;;;1.00;1.00;;;0.30;99.90;;;;;;5049791;28;20263;-86
2023/01/21 05:10:27;;;;;;;1.37;1.37;;;0.60;99.90;;;;;;5049281;28;20228;-85
2023/01/21 05:12:52;;;;;;;6.60;4.87;;;0.80;99.90;;;;;;5049861;28;20222;-85
2023/01/21 05:15:18;;;;;;;9.23;3.53;;;1.10;99.90;;;;;;5049869;28;20228;-85
2023/01/21 05:17:44;;;;;;;3.80;1.97;;;1.40;99.90;;;;;;5048275;28;20210;-85
2023/01/21 05:20:10;;;;;;;1.80;1.70;;;1.60;99.90;;;;;;5050439;28;20784;-85
2023/01/21 05:22:36;;;;;;;5.33;4.80;;;1.70;99.90;;;;;;5049681;28;20290;-85
2023/01/21 05:25:02;;;;;;;2.13;2.03;;;1.70;99.90;;;;;;5048550;28;20245;-86
2023/01/21 05:27:28;;;;;;;5.67;3.10;;;1.70;99.90;;;;;;5048337;28;20699;-85
2023/01/21 05:29:55;;;;;;;7.07;2.07;;;1.60;99.90;;;;;;5048233;28;20221;-87
2023/01/21 05:32:22;;;;;;;5.30;4.90;;;1.60;99.90;;;;;;5048967;28;20182;-86
2023/01/21 05:34:47;;;;;;;4.63;3.57;;;1.60;99.90;;;;;;5032217;28;20247;-86
2023/01/21 05:37:13;;;;;;;4.27;3.97;;;1.50;99.90;;;;;;5032027;28;20205;-86
2023/01/21 05:39:39;;;;;;;0.90;0.90;;;1.60;99.90;;;;;;5049130;28;20569;-85
2023/01/21 05:42:05;;;;;;;2.63;2.53;;;1.80;99.90;;;;;;5048094;28;20300;-86
2023/01/21 05:44:30;;;;;;;2.00;1.90;;;1.90;99.90;;;;;;5047844;28;20178;-85
2023/01/21 05:46:56;;;;;;;1.77;1.53;;;2.10;99.90;;;;;;5049876;28;20613;-85
2023/01/21 05:49:22;;;;;;;3.57;3.37;;;2.20;99.90;;;;;;5047519;28;20279;-85
2023/01/21 05:51:48;;;;;;;3.77;2.53;;;2.30;99.90;;;;;;5047289;28;20233;-84
2023/01/21 05:54:13;;;;;;;1.53;1.27;;;2.50;99.90;;;;;;5031064;28;20225;-85
2023/01/21 05:56:39;;;;;;;2.77;2.33;;;2.40;99.90;;;;;;5030674;28;20356;-85
2023/01/21 05:59:06;;;;;;;6.63;2.63;;;2.30;99.90;;;;;;5031417;28;20269;-84
2023/01/21 06:01:32;;;;;;;2.60;2.40;;;2.00;99.90;;;;;;5047164;28;20245;-85
2023/01/21 06:03:58;;;;;;;2.63;2.27;;;1.80;99.90;;;;;;5030961;28;20466;-84
2023/01/21 06:06:23;;;;;;;8.70;3.80;;;1.80;99.90;;;;;;5047569;28;20230;-85
2023/01/21 06:08:49;;;;;;;5.20;3.60;;;1.60;99.90;;;;;;5047675;28;20221;-86
2023/01/21 06:11:15;;;;;;;8.50;3.27;;;1.50;99.90;;;;;;5031608;28;20189;-83
2023/01/21 06:13:40;;;;;;;0.77;0.77;;;1.50;99.90;;;;;;5030878;28;20589;-86
2023/01/21 06:16:06;;;;;;;8.67;4.77;;;1.50;99.90;;;;;;5031162;28;20279;-84
2023/01/21 06:18:33;;;;;;;14.00;4.00;;;1.40;99.90;;;;;;5047395;28;20272;-86
2023/01/21 06:20:59;;;;;;;10.73;5.07;;;1.40;99.90;;;;;;5048556;28;20234;-86
2023/01/21 06:23:25;;;;;;;4.30;4.07;;;1.40;99.90;;;;;;5048910;28;20193;-86
2023/01/21 06:25:51;;;;;;;7.83;6.10;;;1.40;99.90;;;;;;5047769;28;20182;-87
2023/01/21 06:28:16;;;;;;;4.07;3.17;;;1.50;99.90;;;;;;5048541;28;20570;-84
2023/01/21 06:30:46;;;;;;;8.13;4.70;;;1.50;99.90;;;;;;5047584;28;20210;-85
2023/01/21 06:33:11;;;;;;;4.70;4.30;;;1.50;99.90;;;;;;5048721;28;20291;-85
2023/01/21 06:35:37;;;;;;;1.93;1.83;;;1.40;99.90;;;;;;5046857;28;20790;-87
2023/01/21 06:38:03;;;;;;;3.80;3.17;;;1.40;99.90;;;;;;5049153;28;20232;-86
2023/01/21 06:40:28;;;;;;;7.00;2.63;;;1.40;99.90;;;;;;5047233;28;20224;-86
2023/01/21 06:42:54;;;;;;;5.00;4.63;;;1.50;99.90;;;;;;5048706;28;20298;-85
2023/01/21 06:45:20;;;;;;;6.13;4.97;;;1.50;99.90;;;;;;5047236;28;20268;-85
2023/01/21 06:47:46;;;;;;;4.77;4.37;;;1.40;99.90;;;;;;5046820;28;20723;-86
2023/01/21 06:50:14;;;;;;;3.17;2.87;;;1.30;99.90;;;;;;5047615;28;20186;-84
2023/01/21 06:52:45;;;;;;;5.03;2.77;;;1.30;99.90;;;;;;5046637;28;20249;-86
2023/01/21 06:55:12;;;;;;;4.80;4.33;;;1.30;99.90;;;;;;5047253;28;20233;-86
2023/01/21 06:57:38;;;;;;;5.47;5.00;;;1.30;99.90;;;;;;5048258;28;20408;-85
2023/01/21 07:00:05;;;;;;;5.03;4.07;;;1.30;99.90;;;;;;5030395;28;20275;-84
2023/01/21 07:02:30;;;;;;;4.50;3.53;;;1.30;99.90;;;;;;5046871;28;20205;-85
2023/01/21 07:04:56;;;;;;;6.03;5.53;;;1.40;99.90;;;;;;5047416;28;20220;-85
2023/01/21 07:07:22;;;;;;;6.70;2.77;;;1.40;99.90;;;;;;5046783;28;20466;-86
2023/01/21 07:09:47;;;;;;;2.00;1.77;;;1.50;99.90;;;;;;5047738;28;20224;-86
2023/01/21 07:12:13;;;;;;;5.37;2.87;;;1.50;99.90;;;;;;5046907;28;20221;-84
2023/01/21 07:14:39;;;;;;;5.40;5.00;;;1.50;99.90;;;;;;5029886;28;20185;-86
2023/01/21 07:17:05;;;;;;;5.97;4.30;;;1.50;99.90;;;;;;5030457;28;20581;-86
2023/01/21 07:19:31;;;;;;;7.87;7.17;;;1.60;99.90;;;;;;5028961;28;20304;-86
2023/01/21 07:21:56;;;;;;;6.17;4.10;;;1.60;99.90;;;;;;5046251;28;20210;-85
2023/01/21 07:24:22;;;;;;;9.73;8.97;;;1.60;99.90;;;;;;5048014;28;20692;-85
2023/01/21 07:26:48;;;;;;;8.03;7.33;;;1.60;99.90;;;;;;5046015;28;20222;-85
2023/01/21 07:29:13;;;;;;;14.00;10.47;;;1.60;99.90;;;;;;5047202;28;20189;-85
2023/01/21 07:31:39;;;;;;;8.37;5.57;;;1.60;99.90;;;;;;5045890;28;20602;-87
2023/01/21 07:34:05;;;;;;;6.23;4.73;;;1.60;99.90;;;;;;5046920;28;20225;-87
2023/01/21 07:36:31;;;;;;;8.23;6.67;;;1.60;99.90;;;;;;5031008;28;20251;-87
2023/01/21 07:38:57;;;;;;;7.07;6.30;;;1.50;99.90;;;;;;5047105;28;20671;-87
2023/01/21 07:41:23;;;;;;;12.40;6.30;;;1.60;99.90;;;;;;5048452;28;20261;-87
2023/01/21 07:43:50;;;;;;;8.50;7.77;;;1.60;99.90;;;;;;5048002;28;20179;-90
2023/01/21 07:46:17;;;;;;;11.37;6.23;;;1.60;99.90;;;;;;5047881;28;20210;-86
2023/01/21 07:48:43;;;;;;;4.53;4.00;;;1.60;99.90;;;;;;5048054;28;20218;-83
2023/01/21 07:51:08;;;;;;;2.80;2.70;;;1.70;99.90;;;;;;5048187;28;20214;-86
2023/01/21 07:53:34;;;;;;;5.47;4.97;;;1.70;99.90;;;;;;5046571;28;20225;-84
2023/01/21 07:56:05;;;;;;;4.37;4.00;;;1.70;99.90;;;;;;5047246;28;20281;-86
2023/01/21 07:58:30;;;;;;;6.50;4.33;;;1.90;99.90;;;;;;5046757;28;20214;-86
2023/01/21 08:00:56;;;;;;;7.97;6.00;;;2.20;99.90;;;;;;5047774;28;20728;-84
2023/01/21 08:03:23;;;;;;;5.10;4.57;;;2.50;99.90;;;;;;5046770;28;20206;-86
2023/01/21 08:05:53;;;;;;;6.00;5.50;;;3.00;99.90;;;;;;5048235;28;20217;-84
2023/01/21 08:08:19;;;;;;;8.23;5.60;;;3.60;99.90;;;;;;5049484;28;20340;-85
2023/01/21 08:10:51;;;;;;;13.23;10.13;;;4.10;99.90;;;;;;5049141;28;20305;-85
2023/01/21 08:13:17;;;;;;;7.27;6.63;;;4.60;99.90;;;;;;5049355;28;20695;-86
2023/01/21 08:15:43;;;;;;;10.73;5.80;;;5.10;99.90;;;;;;5047785;28;20213;-89
2023/01/21 08:18:08;;;;;;;5.70;5.23;;;5.50;99.90;;;;;;5030073;28;20745;-85
2023/01/21 08:20:34;;;;;;;9.97;4.93;;;6.00;99.90;;;;;;5048173;28;20185;-85
2023/01/21 08:23:00;;;;;;;7.83;5.70;;;6.60;99.90;;;;;;5034563;28;20182;-86
2023/01/21 08:25:26;;;;;;;8.60;7.13;;;6.60;99.90;;;;;;5052527;28;20348;-85
2023/01/21 08:27:52;;;;;;;5.93;5.33;;;6.30;99.90;;;;;;5051429;28;20738;-85
2023/01/21 08:30:18;;;;;;;5.93;4.40;;;6.00;99.90;;;;;;5051313;28;20241;-83
2023/01/21 08:32:44;;;;;;;8.23;4.10;;;5.70;99.90;;;;;;5050710;28;20222;-84
2023/01/21 08:35:10;;;;;;;6.20;4.10;;;5.40;99.90;;;;;;5051636;28;20209;-86
2023/01/21 08:37:38;;;;;;;8.17;7.50;;;5.20;99.90;;;;;;5049275;28;20222;-82
2023/01/21 08:40:05;;;;;;;5.70;5.13;;;5.10;99.90;;;;;;5051817;28;20218;-89
2023/01/21 08:42:30;;;;;;;9.23;5.00;;;4.90;99.90;;;;;;5050541;28;20282;-90
2023/01/21 08:44:56;;;;;;;8.07;3.70;;;4.70;99.90;;;;;;5050897;28;20711;-89
2023/01/21 08:47:22;;;;;;;6.13;5.63;;;4.60;99.90;;;;;;5017186;28;20289;-85
2023/01/21 08:49:48;;;;;;;7.53;6.30;;;4.30;99.90;;;;;;5034683;28;20178;-92
2023/01/21 08:52:15;;;;;;;7.37;5.67;;;3.70;99.90;;;;;;5017369;28;20255;-90
2023/01/21 08:54:42;;;;;;;11.37;5.77;;;3.70;99.90;;;;;;5051507;28;20229;-86
2023/01/21 08:57:08;;;;;;;11.53;6.30;;;4.00;99.90;;;;;;5051707;28;20229;-90
2023/01/21 08:59:33;;;;;;;6.30;5.63;;;4.30;99.90;;;;;;5050190;28;20266;-88
2023/01/21 09:01:59;;;;;;;11.90;7.07;;;4.50;99.90;;;;;;5051351;28;20268;-90
2023/01/21 09:04:25;;;;;;;4.07;3.73;;;4.60;99.90;;;;;;5033613;28;20661;-89
2023/01/21 09:06:51;;;;;;;7.70;5.87;;;4.60;99.90;;;;;;5033761;28;20321;-91
2023/01/21 09:09:16;;;;;;;5.27;4.77;;;4.40;99.90;;;;;;5050280;28;20221;-89
2023/01/21 09:11:42;;;;;;;3.70;3.47;;;4.20;99.90;;;;;;5054272;28;20221;-89
2023/01/21 09:14:08;;;;;;;5.70;5.20;;;4.00;99.90;;;;;;5051885;28;20214;-90
2023/01/21 09:16:35;;;;;;;7.23;6.00;;;3.90;99.90;;;;;;5050796;28;20214;-90
2023/01/21 09:19:01;;;;;;;6.27;5.67;;;3.70;99.90;;;;;;5052010;28;20214;-91
2023/01/21 09:21:28;;;;;;;14.87;9.40;;;3.60;99.90;;;;;;5034213;28;20210;-91
2023/01/21 09:23:54;;;;;;;6.47;5.63;;;3.50;99.90;;;;;;5050996;28;20213;-89
2023/01/21 09:26:22;;;;;;;5.57;5.20;;;3.20;99.90;;;;;;5052205;28;20250;-90
2023/01/21 09:28:56;;;;;;;6.87;4.50;;;3.20;99.90;;;;;;5051366;28;20237;-91
2023/01/21 09:31:24;;;;;;;7.00;6.50;;;3.00;99.90;;;;;;5051389;28;20233;-93
2023/01/21 09:33:52;;;;;;;6.17;5.57;;;3.00;99.90;;;;;;5050783;28;20262;-91
2023/01/21 09:36:24;;;;;;;5.03;4.73;;;2.90;99.90;;;;;;5051157;28;20210;-91
2023/01/21 09:38:51;;;;;;;8.50;4.00;;;2.80;99.90;;;;;;5050768;28;20209;-92
2023/01/21 09:41:29;;;;;;;4.80;4.50;;;2.80;99.90;;;;;;5033956;28;20187;-92
2023/01/21 09:43:57;;;;;;;8.00;4.20;;;2.80;99.90;;;;;;5051112;28;20206;-90
2023/01/21 09:46:40;;;;;;;4.33;3.67;;;2.70;99.90;;;;;;5051082;28;20229;-91
2023/01/21 09:49:15;;;;;;;4.70;3.57;;;2.70;99.90;;;;;;5050364;28;20230;-91
2023/01/21 09:51:52;;;;;;;8.03;6.07;;;2.70;99.90;;;;;;5050351;28;20241;-88
2023/01/21 09:54:27;;;;;;;11.10;4.67;;;2.90;99.90;;;;;;5051982;28;20224;-90
2023/01/21 09:57:00;;;;;;;6.23;5.83;;;3.10;99.90;;;;;;5051536;28;20224;-90
2023/01/21 09:59:55;;;;;;;12.70;6.10;;;3.20;99.90;;;;;;5050489;28;20228;-90
2023/01/21 10:02:48;;;;;;;4.07;3.37;;;3.40;99.90;;;;;;5051215;28;20189;-90
2023/01/21 10:05:34;;;;;;;15.77;6.93;;;3.60;99.90;;;;;;5051667;28;20298;-89
2023/01/21 10:08:18;;;;;;;8.73;7.97;;;3.80;99.90;;;;;;5051477;28;20268;-90
2023/01/21 10:10:58;;;;;;;6.07;4.90;;;4.00;99.90;;;;;;5050165;28;20252;-89
2023/01/21 10:14:01;;;;;;;7.23;5.67;;;4.20;99.90;;;;;;5034308;28;20605;-90
2023/01/21 10:16:41;;;;;;;5.83;5.33;;;4.20;99.90;;;;;;5050168;28;20234;-90
2023/01/21 10:19:15;;;;;;;9.33;5.67;;;4.30;99.90;;;;;;5049864;28;20675;-87
2023/01/21 10:21:54;;;;;;;8.27;5.00;;;4.40;99.90;;;;;;5050943;28;20252;-88
2023/01/21 10:24:24;;;;;;;5.27;4.43;;;4.40;99.90;;;;;;5050963;28;20233;-88
2023/01/21 10:26:55;;;;;;;15.93;5.93;;;4.50;99.90;;;;;;5049774;28;20722;-89
2023/01/21 10:29:24;;;;;;;4.53;4.13;;;4.40;99.90;;;;;;5034074;28;20183;-89
2023/01/21 10:32:02;;;;;;;10.00;5.40;;;4.20;99.90;;;;;;5049822;28;20208;-89
2023/01/21 10:34:30;;;;;;;7.60;7.00;;;4.20;99.90;;;;;;5048956;28;20205;-88
2023/01/21 10:36:58;;;;;;;4.50;3.87;;;4.10;99.90;;;;;;5049021;28;20244;-89
2023/01/21 10:39:45;;;;;;;13.70;7.17;;;4.00;99.90;;;;;;5050288;28;20374;-88
2023/01/21 10:42:57;;;;;;;3.80;3.53;;;4.00;99.90;;;;;;5049462;28;20213;-88
2023/01/21 10:45:54;;;;;;;5.27;4.53;;;3.90;99.90;;;;;;5049087;28;20221;-88
2023/01/21 10:48:35;;;;;;;4.23;3.47;;;3.90;99.90;;;;;;5028339;28;20799;-88
2023/01/21 10:51:19;;;;;;;5.17;4.87;;;3.80;99.90;;;;;;5049496;28;20205;-89
2023/01/21 10:54:05;;;;;;;6.40;3.83;;;3.70;99.90;;;;;;5049302;28;20229;-88
2023/01/21 10:56:52;;;;;;;4.47;4.17;;;3.60;99.90;;;;;;5048320;28;20221;-88
2023/01/21 10:59:22;;;;;;;4.93;4.63;;;3.60;99.90;;;;;;5051133;28;20260;-88
2023/01/21 11:02:15;;;;;;;3.03;2.83;;;3.60;99.90;;;;;;5049471;28;20198;-87
2023/01/21 11:04:41;;;;;;;3.87;2.77;;;3.70;99.90;;;;;;5028151;28;20270;-88
2023/01/21 11:07:10;;;;;;;4.97;4.47;;;3.90;99.90;;;;;;5049177;28;20238;-87
2023/01/21 11:09:45;;;;;;;4.43;3.13;;;4.00;99.90;;;;;;5040622;28;20225;-88
2023/01/21 11:12:19;;;;;;;4.70;2.63;;;4.10;99.90;;;;;;5050016;28;20298;-88
2023/01/21 11:14:55;;;;;;;5.43;3.07;;;4.20;99.90;;;;;;5048426;28;20212;-88
2023/01/21 11:17:36;;;;;;;10.10;2.53;;;4.20;99.90;;;;;;5049322;28;20662;-87
2023/01/21 11:20:26;;;;;;;12.87;4.27;;;4.30;99.90;;;;;;5050063;28;20201;-87
2023/01/21 11:22:52;;;;;;;3.73;3.43;;;4.30;99.90;;;;;;5036069;28;20206;-88
2023/01/21 11:25:35;;;;;;;2.67;2.47;;;4.30;99.90;;;;;;5048963;28;20251;-87
2023/01/21 11:28:01;;;;;;;7.57;3.40;;;4.20;99.90;;;;;;5048882;28;20225;-87
2023/01/21 11:30:39;;;;;;;4.00;2.30;;;4.10;99.90;;;;;;5048499;28;20217;-87
2023/01/21 11:33:31;;;;;;;2.37;2.17;;;4.20;99.90;;;;;;5048421;28;20217;-87
2023/01/21 11:36:10;;;;;;;2.47;2.27;;;4.40;99.90;;;;;;5049738;28;20219;-88
2023/01/21 11:38:36;;;;;;;5.63;2.80;;;4.50;99.90;;;;;;5050297;28;20209;-87
2023/01/21 11:41:11;;;;;;;4.03;3.77;;;4.70;99.90;;;;;;5032949;28;20183;-88
2023/01/21 11:44:16;;;;;;;5.43;3.27;;;5.00;99.90;;;;;;5048847;28;20221;-88
2023/01/21 11:46:42;;;;;;;7.43;3.53;;;4.80;99.90;;;;;;5031629;28;20649;-88
2023/01/21 11:49:08;;;;;;;3.27;3.00;;;4.80;99.90;;;;;;5048753;28;20214;-87
2023/01/21 11:51:35;;;;;;;6.73;2.83;;;4.90;99.90;;;;;;5048701;28;20229;-89
2023/01/21 11:54:12;;;;;;;3.73;2.63;;;5.00;99.90;;;;;;5049540;28;20268;-89
2023/01/21 11:56:39;;;;;;;3.80;2.77;;;4.90;99.90;;;;;;5048546;28;20494;-89
2023/01/21 11:59:33;;;;;;;2.87;2.53;;;4.90;99.90;;;;;;5052931;28;20174;-91
2023/01/21 12:02:17;;;;;;;2.17;1.93;;;5.00;99.90;;;;;;5052833;28;20187;-89
2023/01/21 12:04:54;;;;;;;4.80;2.93;;;5.00;99.90;;;;;;5052414;28;20217;-90
2023/01/21 12:07:30;;;;;;;2.00;1.90;;;5.10;99.90;;;;;;5051900;28;20228;-90
2023/01/21 12:10:13;;;;;;;2.90;1.93;;;5.10;99.90;;;;;;5051701;28;20224;-90
2023/01/21 12:12:54;;;;;;;1.07;1.07;;;5.10;99.90;;;;;;5052518;28;20275;-90
2023/01/21 12:15:36;;;;;;;2.93;2.30;;;5.00;99.90;;;;;;5051283;28;20218;-89
2023/01/21 12:18:25;;;;;;;2.23;2.00;;;5.00;99.90;;;;;;5052259;28;20221;-91
2023/01/21 12:21:04;;;;;;;2.80;2.37;;;5.00;99.90;;;;;;5043045;28;20279;-91
2023/01/21 12:23:37;;;;;;;4.60;2.83;;;5.10;99.90;;;;;;5052337;28;20179;-92
2023/01/21 12:26:06;;;;;;;2.10;1.90;;;5.20;99.90;;;;;;5052509;28;20178;-92
2023/01/21 12:28:57;;;;;;;3.10;2.90;;;5.20;99.90;;;;;;5051411;28;20241;-92
2023/01/21 12:31:41;;;;;;;7.07;3.03;;;5.10;99.90;;;;;;5053119;28;20206;-91
2023/01/21 12:34:28;;;;;;;7.93;4.30;;;5.20;99.90;;;;;;5052073;28;20221;-93
2023/01/21 12:37:00;;;;;;;11.77;2.17;;;5.30;99.90;;;;;;5051628;28;20213;-91
2023/01/21 12:39:34;;;;;;;1.93;1.70;;;5.30;99.90;;;;;;5052106;28;20297;-89
2023/01/21 12:42:10;;;;;;;3.83;2.43;;;5.30;99.90;;;;;;5051862;28;20262;-89
2023/01/21 12:44:49;;;;;;;5.10;2.47;;;5.30;99.90;;;;;;5051882;28;20251;-90
2023/01/21 12:47:29;;;;;;;4.63;3.37;;;5.20;99.90;;;;;;5052677;28;20190;-89
2023/01/21 12:50:17;;;;;;;1.83;1.60;;;5.20;99.90;;;;;;5051598;28;20272;-88
2023/01/21 12:53:01;;;;;;;4.60;3.43;;;5.10;99.90;;;;;;5050531;28;20249;-89
2023/01/21 12:55:55;;;;;;;2.87;1.63;;;5.20;99.90;;;;;;5052017;28;20229;-90
2023/01/21 12:58:44;;;;;;;3.17;2.37;;;5.30;99.90;;;;;;5050813;28;20275;-90
2023/01/21 13:01:14;;;;;;;3.90;2.07;;;5.30;99.90;;;;;;5049970;28;20304;-90
2023/01/21 13:04:25;;;;;;;2.57;2.37;;;5.70;99.90;;;;;;5050643;28;20221;-90
2023/01/21 13:07:10;;;;;;;2.57;2.07;;;6.00;99.90;;;;;;5034669;28;20229;-91
2023/01/21 13:09:45;;;;;;;2.13;1.67;;;6.10;99.90;;;;;;5049573;28;20213;-91
2023/01/21 13:12:25;;;;;;;8.50;2.63;;;5.90;99.90;;;;;;5051475;28;20224;-90
2023/01/21 13:15:08;;;;;;;3.97;3.30;;;5.80;99.90;;;;;;5034015;28;20217;-90
2023/01/21 13:17:41;;;;;;;3.43;2.93;;;5.90;99.90;;;;;;5050315;28;20330;-90
2023/01/21 13:20:15;;;;;;;4.93;2.93;;;5.90;99.90;;;;;;5055787;28;20738;-90